sensor_id;sensor_type;location;lat;lon;timestamp;P1;durP1;ratioP1;P2;durP2;ratioP2
62435;SDS011;48480;50.252;18.848;2022-12-31T00:01:08;78.70;;;47.60;;
62435;SDS011;48480;50.252;18.848;2022-12-31T00:03:36;75.40;;;43.00;;
62435;SDS011;48480;50.252;18.848;2022-12-31T00:06:16;72.90;;;42.10;;
62435;SDS011;48480;50.252;18.848;2022-12-31T00:08:45;68.90;;;44.20;;
62435;SDS011;48480;50.252;18.848;2022-12-31T00:11:11;69.30;;;40.80;;
62435;SDS011;48480;50.252;18.848;2022-12-31T00:13:37;70.90;;;40.70;;
62435;SDS011;48480;50.252;18.848;2022-12-31T00:16:07;66.90;;;40.30;;
62435;SDS011;48480;50.252;18.848;2022-12-31T00:21:02;70.10;;;42.40;;
62435;SDS011;48480;50.252;18.848;2022-12-31T00:23:29;71.60;;;42.80;;
62435;SDS011;48480;50.252;18.848;2022-12-31T00:25:54;67.90;;;41.80;;
62435;SDS011;48480;50.252;18.848;2022-12-31T00:28:20;71.10;;;40.80;;
62435;SDS011;48480;50.252;18.848;2022-12-31T00:30:46;63.80;;;35.80;;
62435;SDS011;48480;50.252;18.848;2022-12-31T00:33:11;50.90;;;31.10;;
62435;SDS011;48480;50.252;18.848;2022-12-31T00:35:36;51.20;;;29.00;;
62435;SDS011;48480;50.252;18.848;2022-12-31T00:38:02;49.50;;;29.50;;
62435;SDS011;48480;50.252;18.848;2022-12-31T00:40:28;46.80;;;27.90;;
62435;SDS011;48480;50.252;18.848;2022-12-31T00:42:53;47.10;;;27.00;;
62435;SDS011;48480;50.252;18.848;2022-12-31T00:45:19;52.90;;;28.30;;
62435;SDS011;48480;50.252;18.848;2022-12-31T00:47:44;51.40;;;28.80;;
62435;SDS011;48480;50.252;18.848;2022-12-31T00:50:10;49.40;;;27.50;;
62435;SDS011;48480;50.252;18.848;2022-12-31T00:52:35;42.10;;;26.30;;
62435;SDS011;48480;50.252;18.848;2022-12-31T00:55:01;55.60;;;28.20;;
62435;SDS011;48480;50.252;18.848;2022-12-31T00:57:26;52.50;;;28.60;;
62435;SDS011;48480;50.252;18.848;2022-12-31T00:59:52;57.30;;;30.70;;
62435;SDS011;48480;50.252;18.848;2022-12-31T01:02:18;54.50;;;31.00;;
62435;SDS011;48480;50.252;18.848;2022-12-31T01:04:43;54.10;;;30.60;;
62435;SDS011;48480;50.252;18.848;2022-12-31T01:07:09;58.40;;;31.30;;
62435;SDS011;48480;50.252;18.848;2022-12-31T01:09:35;54.20;;;30.60;;
62435;SDS011;48480;50.252;18.848;2022-12-31T01:12:01;54.50;;;32.80;;
62435;SDS011;48480;50.252;18.848;2022-12-31T01:14:37;50.80;;;26.20;;
62435;SDS011;48480;50.252;18.848;2022-12-31T01:17:10;48.90;;;27.10;;
62435;SDS011;48480;50.252;18.848;2022-12-31T01:19:38;37.00;;;23.00;;
62435;SDS011;48480;50.252;18.848;2022-12-31T01:22:04;38.10;;;23.90;;
62435;SDS011;48480;50.252;18.848;2022-12-31T01:24:29;48.60;;;27.00;;
62435;SDS011;48480;50.252;18.848;2022-12-31T01:26:55;40.30;;;24.70;;
62435;SDS011;48480;50.252;18.848;2022-12-31T01:29:22;41.10;;;24.10;;
62435;SDS011;48480;50.252;18.848;2022-12-31T01:31:47;42.60;;;24.60;;
62435;SDS011;48480;50.252;18.848;2022-12-31T01:34:13;41.70;;;24.90;;
62435;SDS011;48480;50.252;18.848;2022-12-31T01:36:38;41.50;;;23.90;;
62435;SDS011;48480;50.252;18.848;2022-12-31T01:39:05;39.00;;;22.60;;
62435;SDS011;48480;50.252;18.848;2022-12-31T01:41:33;38.70;;;22.30;;
62435;SDS011;48480;50.252;18.848;2022-12-31T01:44:02;34.30;;;19.90;;
62435;SDS011;48480;50.252;18.848;2022-12-31T01:46:55;35.60;;;21.50;;
62435;SDS011;48480;50.252;18.848;2022-12-31T01:54:36;30.10;;;17.90;;
62435;SDS011;48480;50.252;18.848;2022-12-31T01:57:13;30.40;;;17.50;;
62435;SDS011;48480;50.252;18.848;2022-12-31T01:59:40;25.30;;;16.20;;
62435;SDS011;48480;50.252;18.848;2022-12-31T02:02:08;25.20;;;15.20;;
62435;SDS011;48480;50.252;18.848;2022-12-31T02:04:34;25.60;;;15.50;;
62435;SDS011;48480;50.252;18.848;2022-12-31T02:07:01;25.40;;;14.70;;
62435;SDS011;48480;50.252;18.848;2022-12-31T02:09:29;26.40;;;16.00;;
62435;SDS011;48480;50.252;18.848;2022-12-31T02:11:56;23.40;;;15.00;;
62435;SDS011;48480;50.252;18.848;2022-12-31T02:14:27;24.00;;;14.10;;
62435;SDS011;48480;50.252;18.848;2022-12-31T02:17:04;24.90;;;15.00;;
62435;SDS011;48480;50.252;18.848;2022-12-31T02:30:16;22.40;;;14.60;;
62435;SDS011;48480;50.252;18.848;2022-12-31T02:35:27;23.20;;;14.10;;
62435;SDS011;48480;50.252;18.848;2022-12-31T02:38:15;21.90;;;13.00;;
62435;SDS011;48480;50.252;18.848;2022-12-31T02:40:47;23.30;;;14.00;;
62435;SDS011;48480;50.252;18.848;2022-12-31T02:43:14;25.20;;;14.60;;
62435;SDS011;48480;50.252;18.848;2022-12-31T02:45:40;27.40;;;15.30;;
62435;SDS011;48480;50.252;18.848;2022-12-31T02:48:22;24.90;;;14.40;;
62435;SDS011;48480;50.252;18.848;2022-12-31T02:51:11;22.10;;;14.60;;
62435;SDS011;48480;50.252;18.848;2022-12-31T02:56:41;22.90;;;13.70;;
62435;SDS011;48480;50.252;18.848;2022-12-31T02:59:27;24.30;;;14.30;;
62435;SDS011;48480;50.252;18.848;2022-12-31T03:02:22;22.10;;;13.20;;
62435;SDS011;48480;50.252;18.848;2022-12-31T03:04:52;21.40;;;13.40;;
62435;SDS011;48480;50.252;18.848;2022-12-31T03:07:21;19.80;;;12.60;;
62435;SDS011;48480;50.252;18.848;2022-12-31T03:09:49;20.90;;;13.90;;
62435;SDS011;48480;50.252;18.848;2022-12-31T03:12:15;19.80;;;13.10;;
62435;SDS011;48480;50.252;18.848;2022-12-31T03:15:01;19.30;;;10.70;;
62435;SDS011;48480;50.252;18.848;2022-12-31T03:17:31;20.80;;;12.70;;
62435;SDS011;48480;50.252;18.848;2022-12-31T03:19:59;21.30;;;12.80;;
62435;SDS011;48480;50.252;18.848;2022-12-31T03:22:43;20.00;;;12.30;;
62435;SDS011;48480;50.252;18.848;2022-12-31T03:25:10;22.70;;;13.10;;
62435;SDS011;48480;50.252;18.848;2022-12-31T03:27:57;21.20;;;12.60;;
62435;SDS011;48480;50.252;18.848;2022-12-31T03:30:24;20.50;;;11.70;;
62435;SDS011;48480;50.252;18.848;2022-12-31T03:32:52;20.30;;;12.30;;
62435;SDS011;48480;50.252;18.848;2022-12-31T03:35:39;20.80;;;13.00;;
62435;SDS011;48480;50.252;18.848;2022-12-31T03:38:07;17.80;;;10.90;;
62435;SDS011;48480;50.252;18.848;2022-12-31T03:40:36;19.10;;;11.60;;
62435;SDS011;48480;50.252;18.848;2022-12-31T03:43:06;20.10;;;10.90;;
62435;SDS011;48480;50.252;18.848;2022-12-31T03:45:32;20.50;;;11.80;;
62435;SDS011;48480;50.252;18.848;2022-12-31T03:47:59;17.10;;;10.80;;
62435;SDS011;48480;50.252;18.848;2022-12-31T03:50:26;18.80;;;10.50;;
62435;SDS011;48480;50.252;18.848;2022-12-31T03:52:53;21.50;;;13.20;;
62435;SDS011;48480;50.252;18.848;2022-12-31T03:55:19;18.30;;;11.50;;
62435;SDS011;48480;50.252;18.848;2022-12-31T03:57:44;18.00;;;11.50;;
62435;SDS011;48480;50.252;18.848;2022-12-31T04:00:11;21.90;;;13.00;;
62435;SDS011;48480;50.252;18.848;2022-12-31T04:02:39;17.90;;;10.80;;
62435;SDS011;48480;50.252;18.848;2022-12-31T04:05:05;19.00;;;11.20;;
62435;SDS011;48480;50.252;18.848;2022-12-31T04:07:32;16.40;;;10.00;;
62435;SDS011;48480;50.252;18.848;2022-12-31T04:09:57;18.30;;;10.40;;
62435;SDS011;48480;50.252;18.848;2022-12-31T04:12:23;20.40;;;12.30;;
62435;SDS011;48480;50.252;18.848;2022-12-31T04:14:49;19.70;;;12.00;;
62435;SDS011;48480;50.252;18.848;2022-12-31T04:17:15;18.70;;;10.10;;
62435;SDS011;48480;50.252;18.848;2022-12-31T04:19:41;15.20;;;9.30;;
62435;SDS011;48480;50.252;18.848;2022-12-31T04:22:07;15.40;;;10.20;;
62435;SDS011;48480;50.252;18.848;2022-12-31T04:24:32;15.90;;;9.50;;
62435;SDS011;48480;50.252;18.848;2022-12-31T04:26:58;15.00;;;9.70;;
62435;SDS011;48480;50.252;18.848;2022-12-31T04:29:24;15.70;;;10.20;;
62435;SDS011;48480;50.252;18.848;2022-12-31T04:31:49;14.60;;;8.70;;
62435;SDS011;48480;50.252;18.848;2022-12-31T04:34:14;15.30;;;8.90;;
62435;SDS011;48480;50.252;18.848;2022-12-31T04:36:40;13.30;;;8.50;;
62435;SDS011;48480;50.252;18.848;2022-12-31T04:39:06;14.60;;;9.00;;
62435;SDS011;48480;50.252;18.848;2022-12-31T04:41:31;15.00;;;8.90;;
62435;SDS011;48480;50.252;18.848;2022-12-31T04:43:57;14.50;;;8.70;;
62435;SDS011;48480;50.252;18.848;2022-12-31T04:46:24;14.70;;;9.50;;
62435;SDS011;48480;50.252;18.848;2022-12-31T04:48:51;13.80;;;8.80;;
62435;SDS011;48480;50.252;18.848;2022-12-31T04:51:17;11.20;;;7.90;;
62435;SDS011;48480;50.252;18.848;2022-12-31T04:53:44;16.00;;;8.40;;
62435;SDS011;48480;50.252;18.848;2022-12-31T04:56:09;13.40;;;8.10;;
62435;SDS011;48480;50.252;18.848;2022-12-31T04:58:35;14.30;;;9.80;;
62435;SDS011;48480;50.252;18.848;2022-12-31T05:01:02;13.00;;;8.20;;
62435;SDS011;48480;50.252;18.848;2022-12-31T05:03:27;14.00;;;8.40;;
62435;SDS011;48480;50.252;18.848;2022-12-31T05:05:58;13.00;;;8.70;;
62435;SDS011;48480;50.252;18.848;2022-12-31T05:08:28;13.30;;;8.20;;
62435;SDS011;48480;50.252;18.848;2022-12-31T05:10:54;13.90;;;9.60;;
62435;SDS011;48480;50.252;18.848;2022-12-31T05:13:20;12.00;;;7.60;;
62435;SDS011;48480;50.252;18.848;2022-12-31T05:15:46;13.60;;;8.80;;
62435;SDS011;48480;50.252;18.848;2022-12-31T05:18:13;14.30;;;9.20;;
62435;SDS011;48480;50.252;18.848;2022-12-31T05:20:39;14.40;;;9.10;;
62435;SDS011;48480;50.252;18.848;2022-12-31T05:23:04;15.60;;;9.10;;
62435;SDS011;48480;50.252;18.848;2022-12-31T05:25:30;14.50;;;8.40;;
62435;SDS011;48480;50.252;18.848;2022-12-31T05:27:56;13.80;;;8.10;;
62435;SDS011;48480;50.252;18.848;2022-12-31T05:30:21;14.80;;;9.50;;
62435;SDS011;48480;50.252;18.848;2022-12-31T05:32:47;15.50;;;9.80;;
62435;SDS011;48480;50.252;18.848;2022-12-31T05:35:13;15.70;;;9.10;;
62435;SDS011;48480;50.252;18.848;2022-12-31T05:37:39;13.00;;;8.20;;
62435;SDS011;48480;50.252;18.848;2022-12-31T05:40:05;11.40;;;7.10;;
62435;SDS011;48480;50.252;18.848;2022-12-31T05:42:31;14.00;;;9.10;;
62435;SDS011;48480;50.252;18.848;2022-12-31T05:45:04;16.40;;;8.70;;
62435;SDS011;48480;50.252;18.848;2022-12-31T05:47:30;13.50;;;8.40;;
62435;SDS011;48480;50.252;18.848;2022-12-31T05:49:55;12.10;;;7.90;;
62435;SDS011;48480;50.252;18.848;2022-12-31T05:52:21;11.50;;;6.90;;
62435;SDS011;48480;50.252;18.848;2022-12-31T05:54:47;12.80;;;8.30;;
62435;SDS011;48480;50.252;18.848;2022-12-31T05:57:13;13.30;;;7.20;;
62435;SDS011;48480;50.252;18.848;2022-12-31T05:59:38;12.30;;;7.60;;
62435;SDS011;48480;50.252;18.848;2022-12-31T06:02:04;12.90;;;7.30;;
62435;SDS011;48480;50.252;18.848;2022-12-31T06:04:30;11.30;;;7.20;;
62435;SDS011;48480;50.252;18.848;2022-12-31T06:06:56;13.20;;;7.30;;
62435;SDS011;48480;50.252;18.848;2022-12-31T06:09:21;11.10;;;7.80;;
62435;SDS011;48480;50.252;18.848;2022-12-31T06:11:47;11.60;;;6.40;;
62435;SDS011;48480;50.252;18.848;2022-12-31T06:14:13;9.10;;;6.50;;
62435;SDS011;48480;50.252;18.848;2022-12-31T06:16:39;10.00;;;7.00;;
62435;SDS011;48480;50.252;18.848;2022-12-31T06:19:05;11.20;;;6.20;;
62435;SDS011;48480;50.252;18.848;2022-12-31T06:21:31;9.40;;;6.20;;
62435;SDS011;48480;50.252;18.848;2022-12-31T06:23:57;11.10;;;7.00;;
62435;SDS011;48480;50.252;18.848;2022-12-31T06:26:23;10.70;;;6.70;;
62435;SDS011;48480;50.252;18.848;2022-12-31T06:28:49;9.80;;;6.30;;
62435;SDS011;48480;50.252;18.848;2022-12-31T06:31:14;11.10;;;6.10;;
62435;SDS011;48480;50.252;18.848;2022-12-31T06:33:40;13.00;;;7.40;;
62435;SDS011;48480;50.252;18.848;2022-12-31T06:36:07;11.20;;;6.40;;
62435;SDS011;48480;50.252;18.848;2022-12-31T06:38:37;8.40;;;4.80;;
62435;SDS011;48480;50.252;18.848;2022-12-31T06:41:11;9.90;;;6.10;;
62435;SDS011;48480;50.252;18.848;2022-12-31T06:43:38;10.90;;;7.30;;
62435;SDS011;48480;50.252;18.848;2022-12-31T06:46:05;9.30;;;5.90;;
62435;SDS011;48480;50.252;18.848;2022-12-31T06:48:33;11.00;;;8.10;;
62435;SDS011;48480;50.252;18.848;2022-12-31T06:51:03;11.00;;;7.10;;
62435;SDS011;48480;50.252;18.848;2022-12-31T06:53:30;11.60;;;7.90;;
62435;SDS011;48480;50.252;18.848;2022-12-31T06:55:56;10.30;;;7.00;;
62435;SDS011;48480;50.252;18.848;2022-12-31T06:58:22;9.30;;;5.80;;
62435;SDS011;48480;50.252;18.848;2022-12-31T07:04:05;11.30;;;7.40;;
62435;SDS011;48480;50.252;18.848;2022-12-31T07:09:31;11.80;;;7.30;;
62435;SDS011;48480;50.252;18.848;2022-12-31T07:12:05;11.30;;;7.30;;
62435;SDS011;48480;50.252;18.848;2022-12-31T07:14:36;14.80;;;8.10;;
62435;SDS011;48480;50.252;18.848;2022-12-31T07:17:20;12.30;;;8.00;;
62435;SDS011;48480;50.252;18.848;2022-12-31T07:20:37;14.80;;;7.50;;
62435;SDS011;48480;50.252;18.848;2022-12-31T07:23:07;12.20;;;7.50;;
62435;SDS011;48480;50.252;18.848;2022-12-31T07:25:34;15.20;;;8.90;;
62435;SDS011;48480;50.252;18.848;2022-12-31T07:28:28;14.30;;;8.60;;
62435;SDS011;48480;50.252;18.848;2022-12-31T07:31:21;12.80;;;8.20;;
62435;SDS011;48480;50.252;18.848;2022-12-31T07:34:14;15.00;;;9.50;;
62435;SDS011;48480;50.252;18.848;2022-12-31T07:36:53;17.10;;;9.40;;
62435;SDS011;48480;50.252;18.848;2022-12-31T07:48:13;13.90;;;8.30;;
62435;SDS011;48480;50.252;18.848;2022-12-31T07:50:48;15.20;;;8.20;;
62435;SDS011;48480;50.252;18.848;2022-12-31T07:53:22;15.10;;;8.80;;
62435;SDS011;48480;50.252;18.848;2022-12-31T07:55:56;15.10;;;9.10;;
62435;SDS011;48480;50.252;18.848;2022-12-31T08:01:07;15.60;;;9.50;;
62435;SDS011;48480;50.252;18.848;2022-12-31T08:03:40;13.90;;;6.90;;
62435;SDS011;48480;50.252;18.848;2022-12-31T08:11:57;12.70;;;8.10;;
62435;SDS011;48480;50.252;18.848;2022-12-31T08:14:25;12.20;;;7.50;;
62435;SDS011;48480;50.252;18.848;2022-12-31T08:16:51;10.80;;;7.50;;
62435;SDS011;48480;50.252;18.848;2022-12-31T08:30:10;11.70;;;7.90;;
62435;SDS011;48480;50.252;18.848;2022-12-31T08:35:31;11.00;;;7.70;;
62435;SDS011;48480;50.252;18.848;2022-12-31T08:41:17;15.70;;;8.50;;
62435;SDS011;48480;50.252;18.848;2022-12-31T08:43:54;15.60;;;8.60;;
62435;SDS011;48480;50.252;18.848;2022-12-31T08:46:30;13.90;;;8.30;;
62435;SDS011;48480;50.252;18.848;2022-12-31T08:49:03;14.70;;;8.20;;
62435;SDS011;48480;50.252;18.848;2022-12-31T08:51:29;12.20;;;7.50;;
62435;SDS011;48480;50.252;18.848;2022-12-31T08:53:54;14.90;;;8.30;;
62435;SDS011;48480;50.252;18.848;2022-12-31T08:56:44;15.70;;;8.20;;
62435;SDS011;48480;50.252;18.848;2022-12-31T09:08:07;10.10;;;6.50;;
62435;SDS011;48480;50.252;18.848;2022-12-31T09:13:20;10.20;;;6.50;;
62435;SDS011;48480;50.252;18.848;2022-12-31T09:15:58;10.60;;;6.80;;
62435;SDS011;48480;50.252;18.848;2022-12-31T09:18:37;10.20;;;7.00;;
62435;SDS011;48480;50.252;18.848;2022-12-31T09:21:06;13.60;;;8.30;;
62435;SDS011;48480;50.252;18.848;2022-12-31T09:23:36;10.90;;;6.70;;
62435;SDS011;48480;50.252;18.848;2022-12-31T09:26:13;8.50;;;5.50;;
62435;SDS011;48480;50.252;18.848;2022-12-31T09:37:34;8.80;;;5.10;;
62435;SDS011;48480;50.252;18.848;2022-12-31T09:55:19;7.80;;;4.80;;
62435;SDS011;48480;50.252;18.848;2022-12-31T10:00:56;9.10;;;6.30;;
62435;SDS011;48480;50.252;18.848;2022-12-31T10:06:58;15.70;;;7.80;;
62435;SDS011;48480;50.252;18.848;2022-12-31T10:27:03;9.60;;;5.90;;
62435;SDS011;48480;50.252;18.848;2022-12-31T10:32:35;13.80;;;7.40;;
62435;SDS011;48480;50.252;18.848;2022-12-31T10:40:50;13.00;;;6.60;;
62435;SDS011;48480;50.252;18.848;2022-12-31T10:43:43;13.70;;;7.00;;
62435;SDS011;48480;50.252;18.848;2022-12-31T11:05:47;10.90;;;6.30;;
62435;SDS011;48480;50.252;18.848;2022-12-31T11:16:56;10.00;;;5.90;;
62435;SDS011;48480;50.252;18.848;2022-12-31T11:22:29;9.40;;;4.90;;
62435;SDS011;48480;50.252;18.848;2022-12-31T11:25:15;9.40;;;5.70;;
62435;SDS011;48480;50.252;18.848;2022-12-31T11:42:39;10.60;;;6.00;;
62435;SDS011;48480;50.252;18.848;2022-12-31T11:47:58;8.70;;;4.30;;
62435;SDS011;48480;50.252;18.848;2022-12-31T11:53:38;8.20;;;4.30;;
62435;SDS011;48480;50.252;18.848;2022-12-31T11:56:51;8.00;;;5.20;;
62435;SDS011;48480;50.252;18.848;2022-12-31T11:59:24;8.00;;;5.70;;
62435;SDS011;48480;50.252;18.848;2022-12-31T12:04:33;9.10;;;6.40;;
62435;SDS011;48480;50.252;18.848;2022-12-31T12:06:59;11.00;;;7.00;;
62435;SDS011;48480;50.252;18.848;2022-12-31T12:09:26;8.80;;;6.20;;
62435;SDS011;48480;50.252;18.848;2022-12-31T12:12:02;7.90;;;5.30;;
62435;SDS011;48480;50.252;18.848;2022-12-31T12:17:01;27.40;;;13.50;;
62435;SDS011;48480;50.252;18.848;2022-12-31T12:19:31;14.00;;;8.00;;
62435;SDS011;48480;50.252;18.848;2022-12-31T12:21:58;12.60;;;7.40;;
62435;SDS011;48480;50.252;18.848;2022-12-31T12:24:35;11.00;;;7.50;;
62435;SDS011;48480;50.252;18.848;2022-12-31T12:27:01;8.20;;;6.10;;
62435;SDS011;48480;50.252;18.848;2022-12-31T12:29:28;9.10;;;5.60;;
62435;SDS011;48480;50.252;18.848;2022-12-31T12:34:52;8.30;;;5.90;;
62435;SDS011;48480;50.252;18.848;2022-12-31T12:39:55;10.00;;;5.30;;
62435;SDS011;48480;50.252;18.848;2022-12-31T12:42:25;10.10;;;6.70;;
62435;SDS011;48480;50.252;18.848;2022-12-31T12:45:27;8.80;;;5.20;;
62435;SDS011;48480;50.252;18.848;2022-12-31T12:47:48;10.00;;;6.50;;
62435;SDS011;48480;50.252;18.848;2022-12-31T12:50:22;10.50;;;6.10;;
62435;SDS011;48480;50.252;18.848;2022-12-31T13:01:50;9.80;;;6.30;;
62435;SDS011;48480;50.252;18.848;2022-12-31T13:04:38;7.40;;;5.40;;
62435;SDS011;48480;50.252;18.848;2022-12-31T13:12:40;10.90;;;6.10;;
62435;SDS011;48480;50.252;18.848;2022-12-31T13:15:17;10.00;;;6.30;;
62435;SDS011;48480;50.252;18.848;2022-12-31T13:18:02;11.10;;;7.80;;
62435;SDS011;48480;50.252;18.848;2022-12-31T13:20:40;11.90;;;8.10;;
62435;SDS011;48480;50.252;18.848;2022-12-31T13:28:50;9.90;;;6.30;;
62435;SDS011;48480;50.252;18.848;2022-12-31T13:31:23;9.80;;;6.60;;
62435;SDS011;48480;50.252;18.848;2022-12-31T13:33:57;10.80;;;6.50;;
62435;SDS011;48480;50.252;18.848;2022-12-31T13:36:30;11.60;;;7.00;;
62435;SDS011;48480;50.252;18.848;2022-12-31T13:39:04;13.10;;;8.20;;
62435;SDS011;48480;50.252;18.848;2022-12-31T13:41:43;15.60;;;9.70;;
62435;SDS011;48480;50.252;18.848;2022-12-31T13:44:23;11.20;;;7.30;;
62435;SDS011;48480;50.252;18.848;2022-12-31T13:55:50;17.30;;;10.10;;
62435;SDS011;48480;50.252;18.848;2022-12-31T13:58:31;12.90;;;8.30;;
62435;SDS011;48480;50.252;18.848;2022-12-31T14:06:52;14.00;;;8.70;;
62435;SDS011;48480;50.252;18.848;2022-12-31T14:09:27;12.00;;;8.50;;
62435;SDS011;48480;50.252;18.848;2022-12-31T14:12:01;13.70;;;8.70;;
62435;SDS011;48480;50.252;18.848;2022-12-31T14:14:38;16.20;;;9.50;;
62435;SDS011;48480;50.252;18.848;2022-12-31T14:20:17;12.70;;;8.00;;
62435;SDS011;48480;50.252;18.848;2022-12-31T14:23:12;11.20;;;6.70;;
62435;SDS011;48480;50.252;18.848;2022-12-31T14:25:46;11.30;;;7.30;;
62435;SDS011;48480;50.252;18.848;2022-12-31T14:28:17;12.80;;;7.70;;
62435;SDS011;48480;50.252;18.848;2022-12-31T14:30:51;11.20;;;7.30;;
62435;SDS011;48480;50.252;18.848;2022-12-31T14:33:29;12.30;;;6.90;;
62435;SDS011;48480;50.252;18.848;2022-12-31T14:39:12;12.50;;;7.50;;
62435;SDS011;48480;50.252;18.848;2022-12-31T14:47:23;20.00;;;11.50;;
62435;SDS011;48480;50.252;18.848;2022-12-31T14:50:30;20.80;;;10.60;;
62435;SDS011;48480;50.252;18.848;2022-12-31T14:52:54;17.30;;;10.40;;
62435;SDS011;48480;50.252;18.848;2022-12-31T14:55:29;21.60;;;12.60;;
62435;SDS011;48480;50.252;18.848;2022-12-31T14:57:59;12.10;;;8.40;;
62435;SDS011;48480;50.252;18.848;2022-12-31T15:05:37;17.80;;;10.20;;
62435;SDS011;48480;50.252;18.848;2022-12-31T15:08:29;16.00;;;10.50;;
62435;SDS011;48480;50.252;18.848;2022-12-31T15:11:05;15.00;;;9.50;;
62435;SDS011;48480;50.252;18.848;2022-12-31T15:14:05;15.00;;;10.20;;
62435;SDS011;48480;50.252;18.848;2022-12-31T15:16:46;16.90;;;9.50;;
62435;SDS011;48480;50.252;18.848;2022-12-31T15:25:02;15.80;;;10.80;;
62435;SDS011;48480;50.252;18.848;2022-12-31T15:27:44;12.10;;;7.90;;
62435;SDS011;48480;50.252;18.848;2022-12-31T15:33:02;14.80;;;9.00;;
62435;SDS011;48480;50.252;18.848;2022-12-31T15:35:46;15.60;;;9.40;;
62435;SDS011;48480;50.252;18.848;2022-12-31T15:43:13;16.30;;;10.90;;
62435;SDS011;48480;50.252;18.848;2022-12-31T15:45:50;11.10;;;7.60;;
62435;SDS011;48480;50.252;18.848;2022-12-31T15:48:25;17.10;;;9.50;;
62435;SDS011;48480;50.252;18.848;2022-12-31T15:50:57;21.40;;;10.70;;
62435;SDS011;48480;50.252;18.848;2022-12-31T15:53:29;16.30;;;10.10;;
62435;SDS011;48480;50.252;18.848;2022-12-31T15:56:01;24.50;;;14.10;;
62435;SDS011;48480;50.252;18.848;2022-12-31T15:58:32;24.90;;;14.20;;
62435;SDS011;48480;50.252;18.848;2022-12-31T16:01:02;26.50;;;13.50;;
62435;SDS011;48480;50.252;18.848;2022-12-31T16:03:31;20.80;;;11.90;;
62435;SDS011;48480;50.252;18.848;2022-12-31T16:06:08;26.30;;;14.00;;
62435;SDS011;48480;50.252;18.848;2022-12-31T16:08:36;20.60;;;12.30;;
62435;SDS011;48480;50.252;18.848;2022-12-31T16:11:05;20.40;;;11.20;;
62435;SDS011;48480;50.252;18.848;2022-12-31T16:13:33;18.10;;;10.10;;
62435;SDS011;48480;50.252;18.848;2022-12-31T16:16:04;15.60;;;8.70;;
62435;SDS011;48480;50.252;18.848;2022-12-31T16:18:36;13.70;;;8.50;;
62435;SDS011;48480;50.252;18.848;2022-12-31T16:21:03;20.30;;;12.00;;
62435;SDS011;48480;50.252;18.848;2022-12-31T16:23:30;19.00;;;11.40;;
62435;SDS011;48480;50.252;18.848;2022-12-31T16:25:56;24.00;;;13.30;;
62435;SDS011;48480;50.252;18.848;2022-12-31T16:28:27;20.10;;;11.20;;
62435;SDS011;48480;50.252;18.848;2022-12-31T16:30:56;16.90;;;12.10;;
62435;SDS011;48480;50.252;18.848;2022-12-31T16:33:27;17.20;;;11.60;;
62435;SDS011;48480;50.252;18.848;2022-12-31T16:35:55;20.00;;;12.10;;
62435;SDS011;48480;50.252;18.848;2022-12-31T16:38:29;16.10;;;9.90;;
62435;SDS011;48480;50.252;18.848;2022-12-31T16:41:06;19.30;;;11.80;;
62435;SDS011;48480;50.252;18.848;2022-12-31T16:43:41;17.30;;;10.20;;
62435;SDS011;48480;50.252;18.848;2022-12-31T16:46:14;19.10;;;11.70;;
62435;SDS011;48480;50.252;18.848;2022-12-31T16:48:53;16.30;;;9.70;;
62435;SDS011;48480;50.252;18.848;2022-12-31T16:51:22;19.60;;;12.70;;
62435;SDS011;48480;50.252;18.848;2022-12-31T16:53:51;18.40;;;11.00;;
62435;SDS011;48480;50.252;18.848;2022-12-31T16:56:28;22.00;;;11.80;;
62435;SDS011;48480;50.252;18.848;2022-12-31T16:59:00;19.70;;;12.40;;
62435;SDS011;48480;50.252;18.848;2022-12-31T17:01:35;19.80;;;11.60;;
62435;SDS011;48480;50.252;18.848;2022-12-31T17:04:03;21.80;;;10.80;;
62435;SDS011;48480;50.252;18.848;2022-12-31T17:06:33;17.30;;;10.60;;
62435;SDS011;48480;50.252;18.848;2022-12-31T17:14:22;34.10;;;12.10;;
62435;SDS011;48480;50.252;18.848;2022-12-31T17:16:54;15.10;;;8.90;;
62435;SDS011;48480;50.252;18.848;2022-12-31T17:19:39;21.20;;;11.10;;
62435;SDS011;48480;50.252;18.848;2022-12-31T17:24:58;20.80;;;11.50;;
62435;SDS011;48480;50.252;18.848;2022-12-31T17:27:26;16.20;;;10.10;;
62435;SDS011;48480;50.252;18.848;2022-12-31T17:29:52;14.90;;;8.40;;
62435;SDS011;48480;50.252;18.848;2022-12-31T17:34:47;16.80;;;10.10;;
62435;SDS011;48480;50.252;18.848;2022-12-31T17:37:15;18.70;;;10.50;;
62435;SDS011;48480;50.252;18.848;2022-12-31T17:39:49;16.70;;;9.80;;
62435;SDS011;48480;50.252;18.848;2022-12-31T17:44:59;16.30;;;9.70;;
62435;SDS011;48480;50.252;18.848;2022-12-31T17:47:51;15.00;;;9.50;;
62435;SDS011;48480;50.252;18.848;2022-12-31T17:50:22;15.60;;;8.30;;
62435;SDS011;48480;50.252;18.848;2022-12-31T17:52:51;15.60;;;9.10;;
62435;SDS011;48480;50.252;18.848;2022-12-31T17:55:20;13.60;;;8.50;;
62435;SDS011;48480;50.252;18.848;2022-12-31T17:57:57;10.20;;;7.00;;
62435;SDS011;48480;50.252;18.848;2022-12-31T18:00:29;15.30;;;9.90;;
62435;SDS011;48480;50.252;18.848;2022-12-31T18:02:57;13.10;;;8.60;;
62435;SDS011;48480;50.252;18.848;2022-12-31T18:05:23;13.60;;;8.20;;
62435;SDS011;48480;50.252;18.848;2022-12-31T18:07:50;12.60;;;8.10;;
62435;SDS011;48480;50.252;18.848;2022-12-31T18:10:17;13.40;;;8.60;;
62435;SDS011;48480;50.252;18.848;2022-12-31T18:12:45;13.80;;;9.90;;
62435;SDS011;48480;50.252;18.848;2022-12-31T18:15:16;12.20;;;9.00;;
62435;SDS011;48480;50.252;18.848;2022-12-31T18:17:48;12.20;;;8.50;;
62435;SDS011;48480;50.252;18.848;2022-12-31T18:20:15;13.30;;;8.40;;
62435;SDS011;48480;50.252;18.848;2022-12-31T18:22:43;14.90;;;8.30;;
62435;SDS011;48480;50.252;18.848;2022-12-31T18:25:12;13.00;;;8.80;;
62435;SDS011;48480;50.252;18.848;2022-12-31T18:27:42;14.30;;;9.00;;
62435;SDS011;48480;50.252;18.848;2022-12-31T18:30:08;17.40;;;9.90;;
62435;SDS011;48480;50.252;18.848;2022-12-31T18:32:36;14.10;;;8.40;;
62435;SDS011;48480;50.252;18.848;2022-12-31T18:35:05;14.00;;;9.40;;
62435;SDS011;48480;50.252;18.848;2022-12-31T18:37:41;15.50;;;10.00;;
62435;SDS011;48480;50.252;18.848;2022-12-31T18:40:09;14.00;;;9.70;;
62435;SDS011;48480;50.252;18.848;2022-12-31T18:42:35;12.50;;;7.70;;
62435;SDS011;48480;50.252;18.848;2022-12-31T18:45:10;14.10;;;8.90;;
62435;SDS011;48480;50.252;18.848;2022-12-31T18:47:42;14.90;;;9.80;;
62435;SDS011;48480;50.252;18.848;2022-12-31T18:50:11;14.20;;;8.90;;
62435;SDS011;48480;50.252;18.848;2022-12-31T18:55:24;13.60;;;9.50;;
62435;SDS011;48480;50.252;18.848;2022-12-31T18:57:56;17.30;;;10.20;;
62435;SDS011;48480;50.252;18.848;2022-12-31T19:00:22;10.40;;;6.60;;
62435;SDS011;48480;50.252;18.848;2022-12-31T19:02:47;15.50;;;10.70;;
62435;SDS011;48480;50.252;18.848;2022-12-31T19:05:20;13.90;;;9.80;;
62435;SDS011;48480;50.252;18.848;2022-12-31T19:07:48;15.40;;;9.50;;
62435;SDS011;48480;50.252;18.848;2022-12-31T19:10:13;14.50;;;9.80;;
62435;SDS011;48480;50.252;18.848;2022-12-31T19:12:40;17.80;;;9.70;;
62435;SDS011;48480;50.252;18.848;2022-12-31T19:17:55;17.50;;;10.60;;
62435;SDS011;48480;50.252;18.848;2022-12-31T19:20:21;15.80;;;9.50;;